sensor_id;sensor_type;location;lat;lon;timestamp;P1;durP1;ratioP1;P2;durP2;ratioP2
8694;SDS011;65580;49.446;6.854;2023-08-12T00:00:05;7.05;;;4.60;;
8694;SDS011;65580;49.446;6.854;2023-08-12T00:04:13;12.65;;;4.65;;
8694;SDS011;65580;49.446;6.854;2023-08-12T00:08:16;16.35;;;5.70;;
8694;SDS011;65580;49.446;6.854;2023-08-12T00:12:20;20.30;;;8.20;;
8694;SDS011;65580;49.446;6.854;2023-08-12T00:16:23;22.65;;;9.43;;
8694;SDS011;65580;49.446;6.854;2023-08-12T00:20:26;13.82;;;5.18;;
8694;SDS011;65580;49.446;6.854;2023-08-12T00:24:29;10.80;;;4.32;;
8694;SDS011;65580;49.446;6.854;2023-08-12T00:28:34;12.98;;;4.80;;
8694;SDS011;65580;49.446;6.854;2023-08-12T00:32:37;7.15;;;4.13;;
8694;SDS011;65580;49.446;6.854;2023-08-12T00:36:40;10.50;;;5.00;;
8694;SDS011;65580;49.446;6.854;2023-08-12T00:40:42;8.15;;;4.07;;
8694;SDS011;65580;49.446;6.854;2023-08-12T00:44:47;11.07;;;5.03;;
8694;SDS011;65580;49.446;6.854;2023-08-12T00:48:50;19.50;;;7.50;;
8694;SDS011;65580;49.446;6.854;2023-08-12T00:56:55;11.18;;;5.32;;
8694;SDS011;65580;49.446;6.854;2023-08-12T01:00:59;12.02;;;6.45;;
8694;SDS011;65580;49.446;6.854;2023-08-12T01:05:02;9.93;;;5.18;;
8694;SDS011;65580;49.446;6.854;2023-08-12T01:09:06;40.63;;;11.30;;
8694;SDS011;65580;49.446;6.854;2023-08-12T01:17:17;9.02;;;4.57;;
8694;SDS011;65580;49.446;6.854;2023-08-12T01:21:21;13.35;;;5.65;;
8694;SDS011;65580;49.446;6.854;2023-08-12T01:25:28;38.40;;;12.00;;
8694;SDS011;65580;49.446;6.854;2023-08-12T01:29:31;13.05;;;6.95;;
8694;SDS011;65580;49.446;6.854;2023-08-12T01:33:35;10.02;;;5.40;;
8694;SDS011;65580;49.446;6.854;2023-08-12T01:37:42;11.57;;;4.85;;
8694;SDS011;65580;49.446;6.854;2023-08-12T01:41:46;9.23;;;3.90;;
8694;SDS011;65580;49.446;6.854;2023-08-12T01:45:50;22.10;;;9.68;;
8694;SDS011;65580;49.446;6.854;2023-08-12T01:53:55;6.25;;;3.58;;
8694;SDS011;65580;49.446;6.854;2023-08-12T01:57:59;343.67;;;16.80;;
8694;SDS011;65580;49.446;6.854;2023-08-12T02:02:03;142.70;;;8.05;;
8694;SDS011;65580;49.446;6.854;2023-08-12T02:06:06;5.85;;;3.30;;
8694;SDS011;65580;49.446;6.854;2023-08-12T02:10:09;4.65;;;2.90;;
8694;SDS011;65580;49.446;6.854;2023-08-12T02:14:13;183.43;;;8.88;;
8694;SDS011;65580;49.446;6.854;2023-08-12T02:18:16;4.00;;;2.70;;
8694;SDS011;65580;49.446;6.854;2023-08-12T02:22:20;5.50;;;2.72;;
8694;SDS011;65580;49.446;6.854;2023-08-12T02:26:24;162.10;;;5.80;;
8694;SDS011;65580;49.446;6.854;2023-08-12T02:30:28;142.52;;;6.47;;
8694;SDS011;65580;49.446;6.854;2023-08-12T02:34:32;77.82;;;5.97;;
8694;SDS011;65580;49.446;6.854;2023-08-12T02:38:35;3.80;;;2.67;;
8694;SDS011;65580;49.446;6.854;2023-08-12T02:46:42;4.03;;;2.60;;
8694;SDS011;65580;49.446;6.854;2023-08-12T02:50:45;4.20;;;2.75;;
8694;SDS011;65580;49.446;6.854;2023-08-12T02:54:48;6.03;;;3.35;;
8694;SDS011;65580;49.446;6.854;2023-08-12T02:58:51;2.58;;;2.08;;
8694;SDS011;65580;49.446;6.854;2023-08-12T03:02:55;128.95;;;5.28;;
8694;SDS011;65580;49.446;6.854;2023-08-12T03:06:58;5.85;;;1.88;;
8694;SDS011;65580;49.446;6.854;2023-08-12T03:15:06;4.25;;;2.40;;
8694;SDS011;65580;49.446;6.854;2023-08-12T03:19:11;4.95;;;2.45;;
8694;SDS011;65580;49.446;6.854;2023-08-12T03:23:14;9.50;;;2.60;;
8694;SDS011;65580;49.446;6.854;2023-08-12T03:27:17;7.80;;;3.90;;
8694;SDS011;65580;49.446;6.854;2023-08-12T03:31:20;3.83;;;2.45;;
8694;SDS011;65580;49.446;6.854;2023-08-12T03:35:24;12.27;;;3.10;;
8694;SDS011;65580;49.446;6.854;2023-08-12T03:39:27;5.90;;;3.22;;
8694;SDS011;65580;49.446;6.854;2023-08-12T03:43:30;8.70;;;3.95;;
8694;SDS011;65580;49.446;6.854;2023-08-12T03:47:35;20.70;;;4.80;;
8694;SDS011;65580;49.446;6.854;2023-08-12T03:51:39;49.63;;;6.50;;
8694;SDS011;65580;49.446;6.854;2023-08-12T03:55:41;5.55;;;4.03;;
8694;SDS011;65580;49.446;6.854;2023-08-12T03:59:44;11.30;;;5.57;;
8694;SDS011;65580;49.446;6.854;2023-08-12T04:03:47;10.18;;;5.38;;
8694;SDS011;65580;49.446;6.854;2023-08-12T04:07:51;46.83;;;6.25;;
8694;SDS011;65580;49.446;6.854;2023-08-12T04:11:54;51.30;;;7.65;;
8694;SDS011;65580;49.446;6.854;2023-08-12T04:15:57;119.35;;;11.25;;
8694;SDS011;65580;49.446;6.854;2023-08-12T04:20:00;27.02;;;7.20;;
8694;SDS011;65580;49.446;6.854;2023-08-12T04:24:09;84.45;;;9.77;;
8694;SDS011;65580;49.446;6.854;2023-08-12T04:28:12;51.75;;;7.80;;
8694;SDS011;65580;49.446;6.854;2023-08-12T04:32:15;7.55;;;5.20;;
8694;SDS011;65580;49.446;6.854;2023-08-12T04:36:18;7.38;;;4.75;;
8694;SDS011;65580;49.446;6.854;2023-08-12T04:44:26;15.93;;;5.50;;
8694;SDS011;65580;49.446;6.854;2023-08-12T04:48:30;11.65;;;5.60;;
8694;SDS011;65580;49.446;6.854;2023-08-12T04:52:33;7.40;;;4.75;;
8694;SDS011;65580;49.446;6.854;2023-08-12T04:56:37;61.72;;;7.07;;
8694;SDS011;65580;49.446;6.854;2023-08-12T05:00:40;11.00;;;5.55;;
8694;SDS011;65580;49.446;6.854;2023-08-12T05:08:48;84.43;;;11.45;;
8694;SDS011;65580;49.446;6.854;2023-08-12T05:12:53;8.45;;;5.90;;
8694;SDS011;65580;49.446;6.854;2023-08-12T05:16:56;74.18;;;10.60;;
8694;SDS011;65580;49.446;6.854;2023-08-12T05:20:59;34.88;;;8.23;;
8694;SDS011;65580;49.446;6.854;2023-08-12T05:25:02;53.22;;;8.68;;
8694;SDS011;65580;49.446;6.854;2023-08-12T05:33:09;135.30;;;14.85;;
8694;SDS011;65580;49.446;6.854;2023-08-12T05:41:14;56.75;;;10.40;;
8694;SDS011;65580;49.446;6.854;2023-08-12T05:49:21;10.73;;;6.20;;
8694;SDS011;65580;49.446;6.854;2023-08-12T05:57:27;24.65;;;9.35;;
8694;SDS011;65580;49.446;6.854;2023-08-12T06:01:32;17.23;;;8.40;;
8694;SDS011;65580;49.446;6.854;2023-08-12T06:05:35;16.48;;;7.72;;
8694;SDS011;65580;49.446;6.854;2023-08-12T06:09:37;16.13;;;7.82;;
8694;SDS011;65580;49.446;6.854;2023-08-12T06:13:40;10.70;;;5.88;;
8694;SDS011;65580;49.446;6.854;2023-08-12T06:17:44;14.68;;;7.80;;
8694;SDS011;65580;49.446;6.854;2023-08-12T06:21:47;25.25;;;11.60;;
8694;SDS011;65580;49.446;6.854;2023-08-12T06:25:50;20.98;;;8.90;;
8694;SDS011;65580;49.446;6.854;2023-08-12T06:29:53;15.05;;;6.82;;
8694;SDS011;65580;49.446;6.854;2023-08-12T06:33:57;13.15;;;6.88;;
8694;SDS011;65580;49.446;6.854;2023-08-12T06:38:00;32.40;;;12.98;;
8694;SDS011;65580;49.446;6.854;2023-08-12T06:42:03;16.92;;;8.25;;
8694;SDS011;65580;49.446;6.854;2023-08-12T06:46:06;19.40;;;9.27;;
8694;SDS011;65580;49.446;6.854;2023-08-12T06:50:11;25.15;;;10.70;;
8694;SDS011;65580;49.446;6.854;2023-08-12T06:54:14;37.65;;;13.45;;
8694;SDS011;65580;49.446;6.854;2023-08-12T06:58:16;41.38;;;15.35;;
8694;SDS011;65580;49.446;6.854;2023-08-12T07:02:19;26.20;;;11.57;;
8694;SDS011;65580;49.446;6.854;2023-08-12T07:06:24;29.70;;;13.05;;
8694;SDS011;65580;49.446;6.854;2023-08-12T07:10:27;23.75;;;11.25;;
8694;SDS011;65580;49.446;6.854;2023-08-12T07:14:30;20.13;;;10.07;;
8694;SDS011;65580;49.446;6.854;2023-08-12T07:18:33;19.67;;;10.30;;
8694;SDS011;65580;49.446;6.854;2023-08-12T07:22:37;38.50;;;15.43;;
8694;SDS011;65580;49.446;6.854;2023-08-12T07:26:40;20.95;;;10.43;;
8694;SDS011;65580;49.446;6.854;2023-08-12T07:30:42;34.55;;;13.93;;
8694;SDS011;65580;49.446;6.854;2023-08-12T07:38:49;18.05;;;10.50;;
8694;SDS011;65580;49.446;6.854;2023-08-12T07:42:52;16.58;;;7.43;;
8694;SDS011;65580;49.446;6.854;2023-08-12T07:46:55;12.15;;;7.35;;
8694;SDS011;65580;49.446;6.854;2023-08-12T07:50:58;8.18;;;4.68;;
8694;SDS011;65580;49.446;6.854;2023-08-12T07:55:03;11.18;;;5.78;;
8694;SDS011;65580;49.446;6.854;2023-08-12T07:59:07;7.43;;;4.53;;
8694;SDS011;65580;49.446;6.854;2023-08-12T08:07:13;8.43;;;4.80;;
8694;SDS011;65580;49.446;6.854;2023-08-12T08:11:17;7.88;;;4.70;;
8694;SDS011;65580;49.446;6.854;2023-08-12T08:15:21;11.07;;;6.72;;
8694;SDS011;65580;49.446;6.854;2023-08-12T08:19:24;9.98;;;4.90;;
8694;SDS011;65580;49.446;6.854;2023-08-12T08:23:30;8.88;;;4.30;;
8694;SDS011;65580;49.446;6.854;2023-08-12T08:27:34;7.55;;;4.60;;
8694;SDS011;65580;49.446;6.854;2023-08-12T08:31:37;8.88;;;4.97;;
8694;SDS011;65580;49.446;6.854;2023-08-12T08:39:43;8.85;;;4.85;;
8694;SDS011;65580;49.446;6.854;2023-08-12T08:47:50;6.25;;;4.18;;
8694;SDS011;65580;49.446;6.854;2023-08-12T08:51:54;17.70;;;8.30;;
8694;SDS011;65580;49.446;6.854;2023-08-12T08:55:57;11.70;;;6.65;;
8694;SDS011;65580;49.446;6.854;2023-08-12T09:00:05;56.20;;;18.77;;
8694;SDS011;65580;49.446;6.854;2023-08-12T09:04:14;17.55;;;8.35;;
8694;SDS011;65580;49.446;6.854;2023-08-12T09:08:17;19.85;;;10.65;;
8694;SDS011;65580;49.446;6.854;2023-08-12T09:12:21;15.65;;;9.65;;
8694;SDS011;65580;49.446;6.854;2023-08-12T09:16:25;24.15;;;12.85;;
8694;SDS011;65580;49.446;6.854;2023-08-12T09:20:28;23.30;;;11.10;;
8694;SDS011;65580;49.446;6.854;2023-08-12T09:24:31;22.40;;;11.60;;
8694;SDS011;65580;49.446;6.854;2023-08-12T09:32:39;18.98;;;11.23;;
8694;SDS011;65580;49.446;6.854;2023-08-12T09:36:42;16.40;;;9.07;;
8694;SDS011;65580;49.446;6.854;2023-08-12T09:40:46;18.65;;;11.40;;
8694;SDS011;65580;49.446;6.854;2023-08-12T09:44:49;12.88;;;8.20;;
8694;SDS011;65580;49.446;6.854;2023-08-12T09:48:53;9.23;;;5.22;;
8694;SDS011;65580;49.446;6.854;2023-08-12T09:52:56;6.85;;;3.40;;
8694;SDS011;65580;49.446;6.854;2023-08-12T09:56:59;12.10;;;3.65;;
8694;SDS011;65580;49.446;6.854;2023-08-12T10:01:03;10.75;;;3.40;;
8694;SDS011;65580;49.446;6.854;2023-08-12T10:05:08;6.38;;;3.40;;
8694;SDS011;65580;49.446;6.854;2023-08-12T10:09:12;7.28;;;3.28;;
8694;SDS011;65580;49.446;6.854;2023-08-12T10:13:15;6.65;;;3.08;;
8694;SDS011;65580;49.446;6.854;2023-08-12T10:17:19;8.43;;;4.40;;
8694;SDS011;65580;49.446;6.854;2023-08-12T10:21:43;7.18;;;3.08;;
8694;SDS011;65580;49.446;6.854;2023-08-12T10:25:47;6.20;;;2.92;;
8694;SDS011;65580;49.446;6.854;2023-08-12T10:29:49;7.00;;;3.10;;
8694;SDS011;65580;49.446;6.854;2023-08-12T10:33:53;5.72;;;2.65;;
8694;SDS011;65580;49.446;6.854;2023-08-12T10:37:57;4.47;;;2.35;;
8694;SDS011;65580;49.446;6.854;2023-08-12T10:42:00;6.28;;;2.58;;
8694;SDS011;65580;49.446;6.854;2023-08-12T10:46:03;4.60;;;2.33;;
8694;SDS011;65580;49.446;6.854;2023-08-12T10:50:06;4.35;;;2.55;;
8694;SDS011;65580;49.446;6.854;2023-08-12T10:54:24;6.50;;;2.47;;
8694;SDS011;65580;49.446;6.854;2023-08-12T10:58:29;5.15;;;1.92;;
8694;SDS011;65580;49.446;6.854;2023-08-12T11:02:33;3.58;;;1.88;;
8694;SDS011;65580;49.446;6.854;2023-08-12T11:06:42;6.78;;;2.40;;
8694;SDS011;65580;49.446;6.854;2023-08-12T11:10:47;3.13;;;1.95;;
8694;SDS011;65580;49.446;6.854;2023-08-12T11:14:52;3.50;;;1.98;;
8694;SDS011;65580;49.446;6.854;2023-08-12T11:18:56;4.32;;;1.90;;
8694;SDS011;65580;49.446;6.854;2023-08-12T11:23:00;4.88;;;2.38;;
8694;SDS011;65580;49.446;6.854;2023-08-12T11:27:04;3.38;;;1.80;;
8694;SDS011;65580;49.446;6.854;2023-08-12T11:31:08;4.40;;;2.00;;
8694;SDS011;65580;49.446;6.854;2023-08-12T11:35:11;3.92;;;1.80;;
8694;SDS011;65580;49.446;6.854;2023-08-12T11:39:14;3.45;;;1.83;;
8694;SDS011;65580;49.446;6.854;2023-08-12T11:43:21;3.83;;;1.80;;
8694;SDS011;65580;49.446;6.854;2023-08-12T11:47:25;3.42;;;1.50;;
8694;SDS011;65580;49.446;6.854;2023-08-12T11:51:28;6.43;;;1.65;;
8694;SDS011;65580;49.446;6.854;2023-08-12T11:55:31;5.30;;;1.83;;
8694;SDS011;65580;49.446;6.854;2023-08-12T11:59:35;3.92;;;1.58;;
8694;SDS011;65580;49.446;6.854;2023-08-12T12:03:38;4.72;;;1.75;;
8694;SDS011;65580;49.446;6.854;2023-08-12T12:07:41;3.63;;;1.63;;
8694;SDS011;65580;49.446;6.854;2023-08-12T12:11:45;2.50;;;1.50;;
8694;SDS011;65580;49.446;6.854;2023-08-12T12:15:49;3.33;;;1.73;;
8694;SDS011;65580;49.446;6.854;2023-08-12T12:19:52;3.30;;;1.90;;
8694;SDS011;65580;49.446;6.854;2023-08-12T12:23:56;3.67;;;1.52;;
8694;SDS011;65580;49.446;6.854;2023-08-12T12:27:59;1.98;;;1.58;;
8694;SDS011;65580;49.446;6.854;2023-08-12T12:32:03;3.63;;;1.52;;
8694;SDS011;65580;49.446;6.854;2023-08-12T12:36:06;4.90;;;1.50;;
8694;SDS011;65580;49.446;6.854;2023-08-12T12:40:10;2.80;;;1.50;;
8694;SDS011;65580;49.446;6.854;2023-08-12T12:44:13;2.67;;;1.58;;
8694;SDS011;65580;49.446;6.854;2023-08-12T12:48:17;5.57;;;1.60;;
8694;SDS011;65580;49.446;6.854;2023-08-12T12:52:20;3.50;;;1.80;;
8694;SDS011;65580;49.446;6.854;2023-08-12T12:56:23;5.00;;;1.90;;
8694;SDS011;65580;49.446;6.854;2023-08-12T13:00:26;3.08;;;1.73;;
8694;SDS011;65580;49.446;6.854;2023-08-12T13:04:30;2.72;;;1.60;;
8694;SDS011;65580;49.446;6.854;2023-08-12T13:08:33;4.50;;;1.95;;
8694;SDS011;65580;49.446;6.854;2023-08-12T13:12:35;4.05;;;1.83;;
8694;SDS011;65580;49.446;6.854;2023-08-12T13:16:38;5.40;;;2.00;;
8694;SDS011;65580;49.446;6.854;2023-08-12T13:20:42;4.63;;;2.13;;
8694;SDS011;65580;49.446;6.854;2023-08-12T13:24:45;4.07;;;1.95;;
8694;SDS011;65580;49.446;6.854;2023-08-12T13:28:49;3.63;;;2.00;;
8694;SDS011;65580;49.446;6.854;2023-08-12T13:32:51;3.85;;;2.00;;
8694;SDS011;65580;49.446;6.854;2023-08-12T13:36:56;3.20;;;1.63;;
8694;SDS011;65580;49.446;6.854;2023-08-12T13:40:59;6.13;;;1.65;;
8694;SDS011;65580;49.446;6.854;2023-08-12T13:45:01;3.15;;;1.80;;
8694;SDS011;65580;49.446;6.854;2023-08-12T13:49:05;3.25;;;1.70;;
8694;SDS011;65580;49.446;6.854;2023-08-12T13:53:09;6.80;;;1.73;;
8694;SDS011;65580;49.446;6.854;2023-08-12T13:57:12;4.75;;;1.65;;
8694;SDS011;65580;49.446;6.854;2023-08-12T14:01:16;3.58;;;1.40;;
8694;SDS011;65580;49.446;6.854;2023-08-12T14:05:19;2.72;;;1.20;;
8694;SDS011;65580;49.446;6.854;2023-08-12T14:09:23;6.13;;;1.40;;
8694;SDS011;65580;49.446;6.854;2023-08-12T14:13:26;3.42;;;1.30;;
8694;SDS011;65580;49.446;6.854;2023-08-12T14:17:29;3.28;;;1.50;;
8694;SDS011;65580;49.446;6.854;2023-08-12T14:21:32;3.13;;;1.40;;
8694;SDS011;65580;49.446;6.854;2023-08-12T14:25:36;5.75;;;1.50;;
8694;SDS011;65580;49.446;6.854;2023-08-12T14:29:39;4.43;;;1.67;;
8694;SDS011;65580;49.446;6.854;2023-08-12T14:33:42;6.05;;;1.58;;
8694;SDS011;65580;49.446;6.854;2023-08-12T14:37:44;3.13;;;1.52;;
8694;SDS011;65580;49.446;6.854;2023-08-12T14:41:49;3.67;;;1.60;;
8694;SDS011;65580;49.446;6.854;2023-08-12T14:45:52;3.25;;;1.63;;
8694;SDS011;65580;49.446;6.854;2023-08-12T14:49:55;5.55;;;1.70;;
8694;SDS011;65580;49.446;6.854;2023-08-12T14:53:58;3.88;;;1.80;;
8694;SDS011;65580;49.446;6.854;2023-08-12T14:58:02;2.80;;;1.63;;
8694;SDS011;65580;49.446;6.854;2023-08-12T15:02:05;5.82;;;1.65;;
8694;SDS011;65580;49.446;6.854;2023-08-12T15:06:08;3.45;;;1.73;;
8694;SDS011;65580;49.446;6.854;2023-08-12T15:10:11;6.55;;;1.95;;
8694;SDS011;65580;49.446;6.854;2023-08-12T15:18:18;3.60;;;2.00;;
8694;SDS011;65580;49.446;6.854;2023-08-12T15:22:21;6.30;;;2.05;;
8694;SDS011;65580;49.446;6.854;2023-08-12T15:26:24;2.80;;;1.58;;
8694;SDS011;65580;49.446;6.854;2023-08-12T15:30:29;3.78;;;1.70;;
8694;SDS011;65580;49.446;6.854;2023-08-12T15:34:32;3.22;;;1.60;;
8694;SDS011;65580;49.446;6.854;2023-08-12T15:38:35;5.75;;;1.67;;
8694;SDS011;65580;49.446;6.854;2023-08-12T15:42:41;2.15;;;1.85;;
8694;SDS011;65580;49.446;6.854;2023-08-12T15:50:47;2.25;;;1.40;;
8694;SDS011;65580;49.446;6.854;2023-08-12T15:54:50;3.28;;;1.52;;
8694;SDS011;65580;49.446;6.854;2023-08-12T15:58:53;3.83;;;1.90;;
8694;SDS011;65580;49.446;6.854;2023-08-12T16:02:58;4.85;;;2.10;;
8694;SDS011;65580;49.446;6.854;2023-08-12T16:07:00;5.65;;;1.90;;
8694;SDS011;65580;49.446;6.854;2023-08-12T16:11:03;4.18;;;1.75;;
8694;SDS011;65580;49.446;6.854;2023-08-12T16:15:07;4.63;;;1.63;;
8694;SDS011;65580;49.446;6.854;2023-08-12T16:19:11;4.03;;;1.77;;
8694;SDS011;65580;49.446;6.854;2023-08-12T16:23:14;4.78;;;2.03;;
8694;SDS011;65580;49.446;6.854;2023-08-12T16:27:17;3.13;;;1.90;;
8694;SDS011;65580;49.446;6.854;2023-08-12T16:31:20;4.13;;;1.80;;
8694;SDS011;65580;49.446;6.854;2023-08-12T16:35:26;2.20;;;1.48;;
8694;SDS011;65580;49.446;6.854;2023-08-12T16:39:28;2.55;;;1.50;;
8694;SDS011;65580;49.446;6.854;2023-08-12T16:43:32;3.00;;;1.60;;
8694;SDS011;65580;49.446;6.854;2023-08-12T16:47:34;6.32;;;1.92;;
8694;SDS011;65580;49.446;6.854;2023-08-12T16:51:39;3.15;;;1.42;;
8694;SDS011;65580;49.446;6.854;2023-08-12T16:55:42;4.47;;;1.85;;
8694;SDS011;65580;49.446;6.854;2023-08-12T16:59:44;3.58;;;1.67;;
8694;SDS011;65580;49.446;6.854;2023-08-12T17:03:48;3.38;;;1.52;;
8694;SDS011;65580;49.446;6.854;2023-08-12T17:07:52;1.85;;;1.50;;
8694;SDS011;65580;49.446;6.854;2023-08-12T17:11:55;3.65;;;1.60;;
8694;SDS011;65580;49.446;6.854;2023-08-12T17:15:58;2.60;;;1.50;;
8694;SDS011;65580;49.446;6.854;2023-08-12T17:20:01;2.65;;;1.42;;
8694;SDS011;65580;49.446;6.854;2023-08-12T17:24:06;2.88;;;1.50;;
8694;SDS011;65580;49.446;6.854;2023-08-12T17:28:09;3.75;;;1.35;;
8694;SDS011;65580;49.446;6.854;2023-08-12T17:32:12;2.60;;;1.40;;
8694;SDS011;65580;49.446;6.854;2023-08-12T17:36:16;1.95;;;1.20;;
8694;SDS011;65580;49.446;6.854;2023-08-12T17:40:20;2.92;;;1.52;;
8694;SDS011;65580;49.446;6.854;2023-08-12T17:44:23;2.13;;;1.30;;
8694;SDS011;65580;49.446;6.854;2023-08-12T17:48:27;3.03;;;1.40;;
8694;SDS011;65580;49.446;6.854;2023-08-12T17:56:33;2.63;;;1.48;;
8694;SDS011;65580;49.446;6.854;2023-08-12T18:00:36;2.17;;;1.13;;
8694;SDS011;65580;49.446;6.854;2023-08-12T18:04:39;3.35;;;1.15;;
8694;SDS011;65580;49.446;6.854;2023-08-12T18:08:42;2.45;;;1.20;;
8694;SDS011;65580;49.446;6.854;2023-08-12T18:12:46;2.53;;;1.35;;
8694;SDS011;65580;49.446;6.854;2023-08-12T18:16:50;1.63;;;1.25;;
8694;SDS011;65580;49.446;6.854;2023-08-12T18:20:53;2.17;;;1.33;;
8694;SDS011;65580;49.446;6.854;2023-08-12T18:24:55;1.33;;;1.10;;
8694;SDS011;65580;49.446;6.854;2023-08-12T18:28:59;1.98;;;1.00;;
8694;SDS011;65580;49.446;6.854;2023-08-12T18:33:02;2.33;;;1.13;;
8694;SDS011;65580;49.446;6.854;2023-08-12T18:37:07;5.18;;;1.17;;
8694;SDS011;65580;49.446;6.854;2023-08-12T18:41:10;4.70;;;1.08;;
8694;SDS011;65580;49.446;6.854;2023-08-12T18:49:17;3.15;;;1.25;;
8694;SDS011;65580;49.446;6.854;2023-08-12T18:53:20;3.25;;;1.02;;
8694;SDS011;65580;49.446;6.854;2023-08-12T18:57:23;1.08;;;0.90;;
8694;SDS011;65580;49.446;6.854;2023-08-12T19:01:27;1.02;;;0.88;;
8694;SDS011;65580;49.446;6.854;2023-08-12T19:05:30;4.53;;;1.10;;
8694;SDS011;65580;49.446;6.854;2023-08-12T19:09:33;1.17;;;0.90;;
8694;SDS011;65580;49.446;6.854;2023-08-12T19:13:36;2.85;;;1.13;;
8694;SDS011;65580;49.446;6.854;2023-08-12T19:21:43;2.60;;;0.90;;
8694;SDS011;65580;49.446;6.854;2023-08-12T19:25:46;5.63;;;1.05;;
8694;SDS011;65580;49.446;6.854;2023-08-12T19:33:53;6.22;;;1.00;;
8694;SDS011;65580;49.446;6.854;2023-08-12T19:37:56;2.05;;;0.90;;
8694;SDS011;65580;49.446;6.854;2023-08-12T19:42:01;4.20;;;0.90;;
8694;SDS011;65580;49.446;6.854;2023-08-12T19:46:04;5.28;;;0.95;;
8694;SDS011;65580;49.446;6.854;2023-08-12T19:50:09;1.55;;;1.10;;
8694;SDS011;65580;49.446;6.854;2023-08-12T19:54:13;7.57;;;1.98;;
8694;SDS011;65580;49.446;6.854;2023-08-12T19:58:16;8.27;;;1.05;;
8694;SDS011;65580;49.446;6.854;2023-08-12T20:02:19;5.18;;;1.30;;
8694;SDS011;65580;49.446;6.854;2023-08-12T20:06:40;4.32;;;0.95;;
8694;SDS011;65580;49.446;6.854;2023-08-12T20:10:43;7.88;;;1.10;;
8694;SDS011;65580;49.446;6.854;2023-08-12T20:14:46;4.22;;;1.50;;
8694;SDS011;65580;49.446;6.854;2023-08-12T20:18:49;2.08;;;1.10;;
8694;SDS011;65580;49.446;6.854;2023-08-12T20:27:06;1.20;;;1.10;;
8694;SDS011;65580;49.446;6.854;2023-08-12T20:31:09;6.20;;;1.20;;
8694;SDS011;65580;49.446;6.854;2023-08-12T20:39:16;3.10;;;1.30;;
8694;SDS011;65580;49.446;6.854;2023-08-12T20:43:19;1.65;;;1.42;;
8694;SDS011;65580;49.446;6.854;2023-08-12T20:51:25;5.47;;;1.48;;
8694;SDS011;65580;49.446;6.854;2023-08-12T20:59:32;3.60;;;1.33;;
8694;SDS011;65580;49.446;6.854;2023-08-12T21:03:35;4.68;;;1.70;;
8694;SDS011;65580;49.446;6.854;2023-08-12T21:11:41;2.75;;;1.58;;
8694;SDS011;65580;49.446;6.854;2023-08-12T21:15:45;5.70;;;1.42;;
8694;SDS011;65580;49.446;6.854;2023-08-12T21:19:48;2.60;;;1.40;;
8694;SDS011;65580;49.446;6.854;2023-08-12T21:23:51;2.97;;;1.25;;
8694;SDS011;65580;49.446;6.854;2023-08-12T21:27:55;3.65;;;1.80;;
8694;SDS011;65580;49.446;6.854;2023-08-12T21:31:58;7.10;;;1.80;;
8694;SDS011;65580;49.446;6.854;2023-08-12T21:36:01;8.63;;;1.50;;
8694;SDS011;65580;49.446;6.854;2023-08-12T21:40:05;4.45;;;1.75;;
8694;SDS011;65580;49.446;6.854;2023-08-12T21:44:10;5.38;;;1.63;;
8694;SDS011;65580;49.446;6.854;2023-08-12T21:48:13;2.95;;;1.40;;
8694;SDS011;65580;49.446;6.854;2023-08-12T21:52:16;6.20;;;1.73;;
8694;SDS011;65580;49.446;6.854;2023-08-12T22:00:23;3.00;;;1.30;;
8694;SDS011;65580;49.446;6.854;2023-08-12T22:04:26;13.90;;;3.38;;
8694;SDS011;65580;49.446;6.854;2023-08-12T22:08:29;5.03;;;1.40;;
8694;SDS011;65580;49.446;6.854;2023-08-12T22:12:32;9.07;;;1.63;;
8694;SDS011;65580;49.446;6.854;2023-08-12T22:16:36;4.47;;;2.00;;
8694;SDS011;65580;49.446;6.854;2023-08-12T22:20:39;3.35;;;1.35;;
8694;SDS011;65580;49.446;6.854;2023-08-12T22:24:42;2.60;;;1.55;;
8694;SDS011;65580;49.446;6.854;2023-08-12T22:28:45;56.15;;;3.50;;
8694;SDS011;65580;49.446;6.854;2023-08-12T22:32:49;3.67;;;1.65;;
8694;SDS011;65580;49.446;6.854;2023-08-12T22:36:52;2.42;;;1.60;;
8694;SDS011;65580;49.446;6.854;2023-08-12T22:40:56;10.45;;;2.28;;
8694;SDS011;65580;49.446;6.854;2023-08-12T22:44:58;3.60;;;1.50;;
8694;SDS011;65580;49.446;6.854;2023-08-12T22:53:05;2.25;;;1.60;;
8694;SDS011;65580;49.446;6.854;2023-08-12T22:57:08;4.25;;;1.33;;
8694;SDS011;65580;49.446;6.854;2023-08-12T23:01:11;4.57;;;1.33;;
8694;SDS011;65580;49.446;6.854;2023-08-12T23:05:17;4.38;;;2.38;;
8694;SDS011;65580;49.446;6.854;2023-08-12T23:09:20;8.23;;;2.90;;
8694;SDS011;65580;49.446;6.854;2023-08-12T23:13:24;3.72;;;1.50;;
8694;SDS011;65580;49.446;6.854;2023-08-12T23:17:26;5.40;;;2.00;;
8694;SDS011;65580;49.446;6.854;2023-08-12T23:21:31;1.38;;;1.27;;
8694;SDS011;65580;49.446;6.854;2023-08-12T23:25:34;5.82;;;2.67;;
8694;SDS011;65580;49.446;6.854;2023-08-12T23:29:37;2.58;;;1.30;;
8694;SDS011;65580;49.446;6.854;2023-08-12T23:33:41;4.10;;;1.17;;
8694;SDS011;65580;49.446;6.854;2023-08-12T23:37:45;4.05;;;1.50;;
8694;SDS011;65580;49.446;6.854;2023-08-12T23:41:48;13.13;;;3.58;;
8694;SDS011;65580;49.446;6.854;2023-08-12T23:45:51;9.40;;;1.50;;
8694;SDS011;65580;49.446;6.854;2023-08-12T23:49:54;5.10;;;1.40;;
8694;SDS011;65580;49.446;6.854;2023-08-12T23:53:58;6.90;;;1.40;;
8694;SDS011;65580;49.446;6.854;2023-08-12T23:58:01;1.45;;;1.13;;
